createdAt,value
2019-02-06T00:00:26.208Z,4.00
2019-02-06T00:01:15.065Z,4.00
2019-02-06T00:02:15.078Z,4.00
2019-02-06T00:03:15.093Z,4.00
2019-02-06T00:04:15.592Z,4.00
2019-02-06T00:05:15.841Z,4.00
2019-02-06T00:06:15.135Z,4.00
2019-02-06T00:07:15.147Z,4.00
2019-02-06T00:08:15.193Z,4.00
2019-02-06T00:09:15.173Z,4.00
2019-02-06T00:10:15.195Z,4.00
2019-02-06T00:11:15.204Z,4.00
2019-02-06T00:12:15.217Z,4.00
2019-02-06T00:13:15.241Z,4.00
2019-02-06T00:14:15.245Z,4.00
2019-02-06T00:15:15.268Z,4.00
2019-02-06T00:16:15.300Z,4.00
2019-02-06T00:17:15.322Z,4.00
2019-02-06T00:18:15.329Z,4.00
2019-02-06T00:19:15.320Z,4.00
2019-02-06T00:20:15.326Z,4.00
2019-02-06T00:21:15.339Z,4.00
2019-02-06T00:22:15.354Z,4.00
2019-02-06T00:23:15.367Z,4.00
2019-02-06T00:24:15.379Z,4.00
2019-02-06T00:25:15.404Z,4.00
2019-02-06T00:26:15.407Z,4.00
2019-02-06T00:27:15.423Z,4.00
2019-02-06T00:28:15.434Z,4.00
2019-02-06T00:29:15.447Z,4.00
2019-02-06T00:30:15.464Z,4.00
2019-02-06T00:31:15.476Z,4.00
2019-02-06T00:32:15.490Z,4.00
2019-02-06T00:33:15.501Z,4.00
2019-02-06T00:34:15.526Z,4.00
2019-02-06T00:35:25.580Z,4.00
2019-02-06T00:36:15.543Z,4.00
2019-02-06T00:37:15.555Z,4.00
2019-02-06T00:38:15.569Z,4.00
2019-02-06T00:39:15.583Z,4.00
2019-02-06T00:40:15.597Z,4.00
2019-02-06T00:41:15.609Z,4.00
2019-02-06T00:42:15.623Z,4.00
2019-02-06T00:43:15.638Z,4.00
2019-02-06T00:44:15.651Z,4.00
2019-02-06T00:45:15.670Z,4.00
2019-02-06T00:46:15.683Z,4.00
2019-02-06T00:47:15.792Z,4.00
2019-02-06T00:48:15.705Z,4.00
2019-02-06T00:49:15.720Z,4.00
2019-02-06T00:50:15.732Z,4.00
2019-02-06T00:51:15.746Z,4.00
2019-02-06T00:52:15.759Z,4.00
2019-02-06T00:53:15.772Z,4.00
2019-02-06T00:54:15.787Z,4.00
2019-02-06T00:55:15.803Z,4.00
2019-02-06T00:56:15.815Z,4.00
2019-02-06T00:57:15.828Z,4.00
2019-02-06T00:58:15.841Z,4.00
2019-02-06T00:59:15.855Z,4.00
2019-02-06T01:00:15.869Z,4.00
2019-02-06T01:01:15.884Z,4.00
2019-02-06T01:02:15.898Z,4.00
2019-02-06T01:03:15.910Z,4.00
2019-02-06T01:04:15.922Z,4.00
2019-02-06T01:05:15.937Z,4.00
2019-02-06T01:06:15.948Z,4.00
2019-02-06T01:07:15.964Z,4.00
2019-02-06T01:08:15.977Z,4.00
2019-02-06T01:09:15.989Z,4.00
2019-02-06T01:10:16.004Z,4.00
2019-02-06T01:11:16.017Z,4.00
2019-02-06T01:12:16.030Z,4.00
2019-02-06T01:13:16.043Z,4.00
2019-02-06T01:14:16.059Z,4.00
2019-02-06T01:15:16.070Z,4.00
2019-02-06T01:16:16.084Z,4.00
2019-02-06T01:17:16.105Z,4.00
2019-02-06T01:18:16.111Z,4.00
2019-02-06T01:19:16.127Z,4.00
2019-02-06T01:20:16.143Z,4.00
2019-02-06T01:21:16.154Z,4.00
2019-02-06T01:22:16.168Z,4.00
2019-02-06T01:23:16.525Z,4.00
2019-02-06T01:24:16.201Z,4.00
2019-02-06T01:25:16.208Z,4.00
2019-02-06T01:26:16.322Z,4.00
2019-02-06T01:27:16.239Z,4.00
2019-02-06T01:28:16.250Z,4.00
2019-02-06T01:29:16.262Z,4.00
2019-02-06T01:30:16.276Z,4.00
2019-02-06T01:31:16.289Z,4.00
2019-02-06T01:32:16.303Z,4.00
2019-02-06T01:33:16.320Z,4.00
2019-02-06T01:34:16.442Z,4.00
2019-02-06T01:35:16.348Z,4.00
2019-02-06T01:36:16.358Z,4.00
2019-02-06T01:37:16.369Z,4.00
2019-02-06T01:38:16.382Z,4.00
2019-02-06T01:39:16.484Z,4.00
2019-02-06T01:40:16.410Z,4.00
2019-02-06T01:41:16.434Z,4.00
2019-02-06T01:42:16.446Z,4.00
2019-02-06T01:43:16.451Z,4.00
2019-02-06T01:44:16.466Z,4.00
2019-02-06T01:45:16.476Z,4.00
2019-02-06T01:46:16.494Z,4.00
2019-02-06T01:47:16.506Z,4.00
2019-02-06T01:48:16.626Z,4.00
2019-02-06T01:49:16.530Z,4.00
2019-02-06T01:50:16.547Z,4.00
2019-02-06T01:51:16.558Z,4.00
2019-02-06T01:52:16.587Z,4.00
2019-02-06T01:53:16.587Z,4.00
2019-02-06T01:54:16.605Z,4.00
2019-02-06T01:55:16.618Z,4.00
2019-02-06T01:56:16.630Z,4.00
2019-02-06T01:57:16.640Z,4.00
2019-02-06T01:58:16.652Z,4.00
2019-02-06T01:59:16.667Z,4.00
2019-02-06T02:00:16.681Z,4.00
2019-02-06T02:01:16.692Z,4.00
2019-02-06T02:02:16.709Z,4.00
2019-02-06T02:03:16.720Z,4.00
2019-02-06T02:04:16.735Z,4.00
2019-02-06T02:05:16.748Z,4.00
2019-02-06T02:06:16.759Z,4.00
2019-02-06T02:07:16.775Z,4.00
2019-02-06T02:08:16.796Z,4.00
2019-02-06T02:09:16.806Z,4.00
2019-02-06T02:10:16.816Z,4.00
2019-02-06T02:11:16.826Z,4.00
2019-02-06T02:12:16.939Z,4.00
2019-02-06T02:13:16.855Z,4.00
2019-02-06T02:14:16.867Z,4.00
2019-02-06T02:15:16.880Z,4.00
2019-02-06T02:16:16.894Z,4.00
2019-02-06T02:17:16.909Z,4.00
2019-02-06T02:18:16.926Z,4.00
2019-02-06T02:19:16.934Z,4.00
2019-02-06T02:20:16.948Z,4.00
2019-02-06T02:21:16.962Z,4.00
2019-02-06T02:22:16.973Z,4.00
2019-02-06T02:23:16.989Z,4.00
2019-02-06T02:24:17.009Z,4.00
2019-02-06T02:25:17.018Z,4.00
2019-02-06T02:26:17.033Z,4.00
2019-02-06T02:27:17.044Z,4.00
2019-02-06T02:28:17.054Z,4.00
2019-02-06T02:29:17.074Z,4.00
2019-02-06T02:30:17.081Z,4.00
2019-02-06T02:31:17.097Z,4.00
2019-02-06T02:32:17.115Z,4.00
2019-02-06T02:33:17.127Z,4.00
2019-02-06T02:34:17.139Z,4.00
2019-02-06T02:35:17.153Z,4.00
2019-02-06T02:36:17.164Z,4.00
2019-02-06T02:37:17.180Z,4.00
2019-02-06T02:38:17.191Z,4.00
2019-02-06T02:39:17.204Z,4.00
2019-02-06T02:40:17.215Z,4.00
2019-02-06T02:41:17.245Z,4.00
2019-02-06T02:42:17.243Z,4.00
2019-02-06T02:43:17.255Z,4.00
2019-02-06T02:44:17.293Z,4.00
2019-02-06T02:45:17.291Z,4.00
2019-02-06T02:46:17.295Z,4.00
2019-02-06T02:47:17.312Z,4.00
2019-02-06T02:48:17.329Z,4.00
2019-02-06T02:49:17.338Z,4.00
2019-02-06T02:50:17.350Z,4.00
2019-02-06T02:51:17.365Z,4.00
2019-02-06T02:52:17.376Z,4.00
2019-02-06T02:53:17.392Z,4.00
2019-02-06T02:54:17.447Z,4.00
2019-02-06T02:55:17.431Z,4.00
2019-02-06T02:56:17.432Z,4.00
2019-02-06T02:57:17.443Z,4.00
2019-02-06T02:58:17.459Z,4.00
2019-02-06T02:59:17.522Z,4.00
2019-02-06T03:00:17.486Z,4.00
2019-02-06T03:01:17.498Z,4.00
2019-02-06T03:02:17.512Z,4.00
2019-02-06T03:03:17.527Z,4.00
2019-02-06T03:04:17.547Z,4.00
2019-02-06T03:05:17.553Z,4.00
2019-02-06T03:06:27.660Z,4.00
2019-02-06T03:07:17.581Z,4.00
2019-02-06T03:08:17.593Z,4.00
2019-02-06T03:09:17.607Z,4.00
2019-02-06T03:10:17.620Z,4.00
2019-02-06T03:11:17.631Z,4.00
2019-02-06T03:12:17.647Z,4.00
2019-02-06T03:13:17.657Z,4.00
2019-02-06T03:14:17.676Z,4.00
2019-02-06T03:15:17.689Z,4.00
2019-02-06T03:16:17.701Z,4.00
2019-02-06T03:17:17.768Z,4.00
2019-02-06T03:18:17.728Z,4.00
2019-02-06T03:19:17.744Z,4.00
2019-02-06T03:20:17.763Z,4.00
2019-02-06T03:21:17.771Z,4.00
2019-02-06T03:22:17.782Z,4.00
2019-02-06T03:23:17.796Z,4.00
2019-02-06T03:24:17.815Z,4.00
2019-02-06T03:25:17.822Z,4.00
2019-02-06T03:26:17.835Z,4.00
2019-02-06T03:27:17.849Z,4.00
2019-02-06T03:28:17.872Z,4.00
2019-02-06T03:29:17.879Z,4.00
2019-02-06T03:30:17.913Z,4.00
2019-02-06T03:31:17.902Z,4.00
2019-02-06T03:32:17.924Z,4.00
2019-02-06T03:33:17.931Z,4.00
2019-02-06T03:34:17.980Z,4.00
2019-02-06T03:35:17.959Z,4.00
2019-02-06T03:36:17.996Z,4.00
2019-02-06T03:37:17.982Z,4.00
2019-02-06T03:38:18.120Z,4.00
2019-02-06T03:39:18.016Z,4.00
2019-02-06T03:40:18.045Z,4.00
2019-02-06T03:41:18.038Z,4.00
2019-02-06T03:42:18.066Z,4.00
2019-02-06T03:43:18.064Z,4.00
2019-02-06T03:44:18.085Z,4.00
2019-02-06T03:45:18.089Z,4.00
2019-02-06T03:46:18.104Z,4.00
2019-02-06T03:47:18.123Z,4.00
2019-02-06T03:48:18.134Z,4.00
2019-02-06T03:49:18.144Z,4.00
2019-02-06T03:50:18.162Z,4.00
2019-02-06T03:51:18.172Z,4.00
2019-02-06T03:52:18.185Z,4.00
2019-02-06T03:53:18.198Z,4.00
2019-02-06T03:54:18.213Z,4.00
2019-02-06T03:55:18.227Z,4.00
2019-02-06T03:56:18.242Z,4.00
2019-02-06T03:57:18.250Z,4.00
2019-02-06T03:58:18.264Z,4.00
2019-02-06T03:59:18.287Z,4.00
2019-02-06T04:00:18.292Z,4.00
2019-02-06T04:01:18.307Z,4.00
2019-02-06T04:02:18.324Z,4.00
2019-02-06T04:03:18.346Z,4.00
2019-02-06T04:04:18.347Z,4.00
2019-02-06T04:05:18.454Z,4.00
2019-02-06T04:06:18.377Z,4.00
2019-02-06T04:07:18.387Z,4.00
2019-02-06T04:08:18.400Z,4.00
2019-02-06T04:09:19.364Z,4.00
2019-02-06T04:10:18.428Z,4.00
2019-02-06T04:11:18.443Z,4.00
2019-02-06T04:12:18.460Z,4.00
2019-02-06T04:13:18.465Z,4.00
2019-02-06T04:14:18.479Z,4.00
2019-02-06T04:15:18.496Z,4.00
2019-02-06T04:16:18.517Z,4.00
2019-02-06T04:17:18.521Z,4.00
2019-02-06T04:18:18.535Z,4.00
2019-02-06T04:19:18.547Z,4.00
2019-02-06T04:20:18.567Z,4.00
2019-02-06T04:21:18.581Z,4.00
2019-02-06T04:22:18.597Z,4.00
2019-02-06T04:23:18.603Z,4.00
2019-02-06T04:24:18.614Z,4.00
2019-02-06T04:25:18.627Z,4.00
2019-02-06T04:26:18.643Z,4.00
2019-02-06T04:27:18.657Z,4.00
2019-02-06T04:28:18.668Z,4.00
2019-02-06T04:29:18.699Z,4.00
2019-02-06T04:30:19.109Z,4.00
2019-02-06T04:31:18.709Z,4.00
2019-02-06T04:32:18.724Z,4.00
2019-02-06T04:33:19.035Z,4.00
2019-02-06T04:34:18.754Z,4.00
2019-02-06T04:35:18.765Z,4.00
2019-02-06T04:36:19.035Z,4.00
2019-02-06T04:37:18.788Z,4.00
2019-02-06T04:38:18.807Z,4.00
2019-02-06T04:39:19.067Z,4.00
2019-02-06T04:40:18.831Z,4.00
2019-02-06T04:41:18.846Z,4.00
2019-02-06T04:42:18.929Z,4.00
2019-02-06T04:43:18.872Z,4.00
2019-02-06T04:44:18.888Z,4.00
2019-02-06T04:45:18.902Z,4.00
2019-02-06T04:46:19.058Z,4.00
2019-02-06T04:47:18.930Z,4.00
2019-02-06T04:48:18.949Z,4.00
2019-02-06T04:49:18.983Z,4.00
2019-02-06T04:50:19.015Z,4.00
2019-02-06T04:51:18.978Z,4.00
2019-02-06T04:52:18.994Z,4.00
2019-02-06T04:53:19.006Z,4.00
2019-02-06T04:54:19.018Z,4.00
2019-02-06T04:55:19.031Z,4.00
2019-02-06T04:56:19.048Z,4.00
2019-02-06T04:57:19.061Z,4.00
2019-02-06T04:58:19.075Z,4.00
2019-02-06T04:59:19.092Z,4.00
2019-02-06T05:00:19.107Z,4.00
2019-02-06T05:01:19.112Z,4.00
2019-02-06T05:02:19.126Z,4.00
2019-02-06T05:03:19.141Z,4.00
2019-02-06T05:04:19.154Z,4.00
2019-02-06T05:05:19.178Z,4.00
2019-02-06T05:06:19.195Z,4.00
2019-02-06T05:07:19.795Z,4.00
2019-02-06T05:08:19.210Z,4.00
2019-02-06T05:09:19.222Z,4.00
2019-02-06T05:10:19.238Z,4.00
2019-02-06T05:11:19.252Z,4.00
2019-02-06T05:12:19.260Z,4.00
2019-02-06T05:13:19.276Z,4.00
2019-02-06T05:14:19.288Z,4.00
2019-02-06T05:15:19.308Z,4.00
2019-02-06T05:16:19.317Z,4.00
2019-02-06T05:17:19.329Z,4.00
2019-02-06T05:18:19.343Z,4.00
2019-02-06T05:19:19.353Z,4.00
2019-02-06T05:20:19.368Z,4.00
2019-02-06T05:21:19.386Z,4.00
2019-02-06T05:22:19.394Z,4.00
2019-02-06T05:23:19.407Z,4.00
2019-02-06T05:24:19.422Z,4.00
2019-02-06T05:25:19.434Z,4.00
2019-02-06T05:26:19.450Z,4.00
2019-02-06T05:27:19.464Z,4.00
2019-02-06T05:28:19.477Z,4.00
2019-02-06T05:29:19.490Z,4.00
2019-02-06T05:30:19.510Z,4.00
2019-02-06T05:31:19.519Z,4.00
2019-02-06T05:32:19.532Z,4.00
2019-02-06T05:33:19.542Z,4.00
2019-02-06T05:34:19.564Z,4.00
2019-02-06T05:35:19.571Z,0.00
2019-02-06T05:36:19.587Z,4.00
2019-02-06T05:37:31.238Z,4.00
2019-02-06T05:38:19.618Z,4.00
2019-02-06T05:39:19.623Z,4.00
2019-02-06T05:40:19.646Z,4.00
2019-02-06T05:41:19.653Z,4.00
2019-02-06T05:42:19.667Z,4.00
2019-02-06T05:43:19.679Z,4.00
2019-02-06T05:44:19.691Z,4.00
2019-02-06T05:45:19.704Z,4.00
2019-02-06T05:46:19.718Z,4.00
2019-02-06T05:47:19.732Z,4.00
2019-02-06T05:48:19.757Z,4.00
2019-02-06T05:49:19.761Z,4.00
2019-02-06T05:50:19.772Z,4.00
2019-02-06T05:51:19.786Z,4.00
2019-02-06T05:52:19.802Z,4.00
2019-02-06T05:53:19.823Z,4.00
2019-02-06T05:54:19.828Z,4.00
2019-02-06T05:55:19.850Z,4.00
2019-02-06T05:56:19.863Z,4.00
2019-02-06T05:57:19.867Z,4.00
2019-02-06T05:58:19.884Z,4.00
2019-02-06T05:59:19.900Z,4.00
2019-02-06T06:00:19.915Z,4.00
2019-02-06T06:01:19.924Z,4.00
2019-02-06T06:02:19.935Z,4.00
2019-02-06T06:03:19.955Z,4.00
2019-02-06T06:04:19.963Z,4.00
2019-02-06T06:05:19.979Z,4.00
2019-02-06T06:06:19.995Z,4.00
2019-02-06T06:07:20.005Z,4.00
2019-02-06T06:08:20.023Z,4.00
2019-02-06T06:09:20.034Z,4.00
2019-02-06T06:10:20.051Z,4.00
2019-02-06T06:11:20.057Z,4.00
2019-02-06T06:12:20.071Z,4.00
2019-02-06T06:13:20.189Z,4.00
2019-02-06T06:14:20.098Z,4.00
2019-02-06T06:15:20.115Z,4.00
2019-02-06T06:16:20.126Z,4.00
2019-02-06T06:17:20.140Z,4.00
2019-02-06T06:18:22.012Z,4.00
2019-02-06T06:19:20.186Z,4.00
2019-02-06T06:20:20.190Z,4.00
2019-02-06T06:21:20.195Z,4.00
2019-02-06T06:22:20.210Z,4.00
2019-02-06T06:23:20.224Z,4.00
2019-02-06T06:24:20.238Z,4.00
2019-02-06T06:25:20.263Z,4.00
2019-02-06T06:26:20.262Z,0.00
2019-02-06T06:27:20.428Z,4.00
2019-02-06T06:28:20.292Z,4.00
2019-02-06T06:29:20.303Z,4.00
2019-02-06T06:30:20.327Z,4.00
2019-02-06T06:31:20.333Z,4.00
2019-02-06T06:32:20.349Z,4.00
2019-02-06T06:33:20.360Z,4.00
2019-02-06T06:34:20.373Z,4.00
2019-02-06T06:35:20.386Z,4.00
2019-02-06T06:36:20.402Z,8.00
2019-02-06T06:37:20.418Z,4.00
2019-02-06T06:38:20.430Z,4.00
2019-02-06T06:39:20.450Z,8.00
2019-02-06T06:40:20.460Z,8.00
2019-02-06T06:41:20.472Z,8.00
2019-02-06T06:42:24.033Z,12.00
2019-02-06T06:43:20.499Z,8.00
2019-02-06T06:44:20.514Z,12.00
2019-02-06T06:45:20.524Z,12.00
2019-02-06T06:46:20.539Z,16.00
2019-02-06T06:47:20.556Z,12.00
2019-02-06T06:48:20.569Z,16.00
2019-02-06T06:49:20.582Z,20.00
2019-02-06T06:50:20.596Z,20.00
2019-02-06T06:51:20.610Z,24.00
2019-02-06T06:52:20.624Z,28.00
2019-02-06T06:53:20.636Z,28.00
2019-02-06T06:54:20.649Z,32.00
2019-02-06T06:55:20.670Z,40.00
2019-02-06T06:56:20.681Z,44.00
2019-02-06T06:57:20.692Z,48.00
2019-02-06T06:58:20.705Z,52.00
2019-02-06T06:59:20.719Z,56.00
2019-02-06T07:00:20.738Z,64.00
2019-02-06T07:01:20.747Z,72.00
2019-02-06T07:02:20.761Z,80.00
2019-02-06T07:03:20.777Z,88.00
2019-02-06T07:04:20.790Z,100.00
2019-02-06T07:05:20.808Z,108.00
2019-02-06T07:06:20.815Z,116.00
2019-02-06T07:07:20.830Z,128.00
2019-02-06T07:08:20.843Z,140.00
2019-02-06T07:09:20.856Z,152.00
2019-02-06T07:10:20.872Z,164.00
2019-02-06T07:11:20.891Z,184.00
2019-02-06T07:12:20.900Z,204.00
2019-02-06T07:13:20.912Z,220.00
2019-02-06T07:14:20.927Z,244.00
2019-02-06T07:15:20.940Z,260.00
2019-02-06T07:16:20.956Z,276.00
2019-02-06T07:17:20.968Z,296.00
2019-02-06T07:18:20.983Z,316.00
2019-02-06T07:19:20.998Z,336.00
2019-02-06T07:20:21.018Z,356.00
2019-02-06T07:21:21.037Z,380.00
2019-02-06T07:22:21.037Z,400.00
2019-02-06T07:23:21.057Z,420.00
2019-02-06T07:24:21.065Z,436.00
2019-02-06T07:25:21.083Z,456.00
2019-02-06T07:26:21.092Z,472.00
2019-02-06T07:27:21.217Z,488.00
2019-02-06T07:28:21.128Z,504.00
2019-02-06T07:29:21.136Z,520.00
2019-02-06T07:30:21.154Z,540.00
2019-02-06T07:31:21.168Z,560.00
2019-02-06T07:32:21.178Z,580.00
2019-02-06T07:33:21.190Z,596.00
2019-02-06T07:34:21.208Z,616.00
2019-02-06T07:35:21.217Z,636.00
2019-02-06T07:36:21.240Z,660.00
2019-02-06T07:37:21.243Z,680.00
2019-02-06T07:38:24.281Z,704.00
2019-02-06T07:39:21.271Z,732.00
2019-02-06T07:40:21.292Z,756.00
2019-02-06T07:41:21.299Z,780.00
2019-02-06T07:42:21.315Z,804.00
2019-02-06T07:43:21.326Z,832.00
2019-02-06T07:44:21.349Z,860.00
2019-02-06T07:45:21.362Z,884.00
2019-02-06T07:46:21.374Z,912.00
2019-02-06T07:47:21.384Z,936.00
2019-02-06T07:48:21.404Z,964.00
2019-02-06T07:49:21.409Z,988.00
2019-02-06T07:50:21.426Z,1016.00
2019-02-06T07:51:21.440Z,1040.00
2019-02-06T07:52:21.451Z,1068.00
2019-02-06T07:53:21.465Z,1092.00
2019-02-06T07:54:21.478Z,1112.00
2019-02-06T07:55:21.493Z,1136.00
2019-02-06T07:56:21.509Z,1156.00
2019-02-06T07:57:21.528Z,1176.00
2019-02-06T07:58:21.536Z,1192.00
2019-02-06T07:59:21.662Z,1208.00
2019-02-06T08:00:21.565Z,1228.00
2019-02-06T08:01:21.583Z,1244.00
2019-02-06T08:02:21.590Z,1256.00
2019-02-06T08:03:21.606Z,1272.00
2019-02-06T08:04:21.622Z,1288.00
2019-02-06T08:05:21.638Z,1304.00
2019-02-06T08:06:21.649Z,1324.00
2019-02-06T08:07:21.662Z,1340.00
2019-02-06T08:08:21.675Z,1368.00
2019-02-06T08:09:21.687Z,1388.00
2019-02-06T08:10:21.701Z,1420.00
2019-02-06T08:11:21.807Z,1460.00
2019-02-06T08:12:21.733Z,1496.00
2019-02-06T08:13:21.753Z,1524.00
2019-02-06T08:14:21.775Z,1560.00
2019-02-06T08:15:21.786Z,1592.00
2019-02-06T08:16:21.788Z,1620.00
2019-02-06T08:17:21.801Z,1632.00
2019-02-06T08:18:21.820Z,1660.00
2019-02-06T08:19:21.833Z,1672.00
2019-02-06T08:20:21.843Z,1704.00
2019-02-06T08:21:21.856Z,1716.00
2019-02-06T08:22:21.872Z,1736.00
2019-02-06T08:23:21.886Z,1736.00
2019-02-06T08:24:21.906Z,1728.00
2019-02-06T08:25:21.916Z,1732.00
2019-02-06T08:26:21.936Z,1744.00
2019-02-06T08:27:21.950Z,1744.00
2019-02-06T08:28:21.958Z,1748.00
2019-02-06T08:29:21.972Z,1756.00
2019-02-06T08:30:21.989Z,1760.00
2019-02-06T08:31:22.002Z,1768.00
2019-02-06T08:32:22.016Z,1772.00
2019-02-06T08:33:22.389Z,1780.00
2019-02-06T08:34:22.043Z,1784.00
2019-02-06T08:35:22.059Z,1792.00
2019-02-06T08:36:22.080Z,1804.00
2019-02-06T08:37:22.089Z,1824.00
2019-02-06T08:38:22.110Z,1848.00
2019-02-06T08:39:22.117Z,1872.00
2019-02-06T08:40:22.132Z,1904.00
2019-02-06T08:41:22.146Z,1944.00
2019-02-06T08:42:22.167Z,1972.00
2019-02-06T08:43:22.177Z,2012.00
2019-02-06T08:44:22.193Z,2040.00
2019-02-06T08:45:22.207Z,2076.00
2019-02-06T08:46:22.223Z,2112.00
2019-02-06T08:47:22.236Z,2120.00
2019-02-06T08:48:22.250Z,2116.00
2019-02-06T08:49:22.265Z,2120.00
2019-02-06T08:50:22.284Z,2136.00
2019-02-06T08:51:22.293Z,2132.00
2019-02-06T08:52:22.311Z,2148.00
2019-02-06T08:53:22.326Z,2168.00
2019-02-06T08:54:22.340Z,2184.00
2019-02-06T08:55:22.356Z,2212.00
2019-02-06T08:56:22.371Z,2244.00
2019-02-06T08:57:22.384Z,2272.00
2019-02-06T08:58:22.406Z,2312.00
2019-02-06T08:59:22.415Z,2364.00
2019-02-06T09:00:22.431Z,2416.00
2019-02-06T09:01:22.447Z,2448.00
2019-02-06T09:02:22.461Z,2500.00
2019-02-06T09:03:22.483Z,2560.00
2019-02-06T09:04:22.492Z,2616.00
2019-02-06T09:05:22.505Z,2692.00
2019-02-06T09:06:22.518Z,2732.00
2019-02-06T09:07:22.533Z,2768.00
2019-02-06T09:08:22.551Z,2820.00
2019-02-06T09:09:22.564Z,2852.00
2019-02-06T09:10:22.579Z,2888.00
2019-02-06T09:11:22.594Z,2920.00
2019-02-06T09:12:22.611Z,2960.00
2019-02-06T09:13:22.629Z,3020.00
2019-02-06T09:14:22.642Z,3040.00
2019-02-06T09:15:22.666Z,3072.00
2019-02-06T09:16:22.670Z,3108.00
2019-02-06T09:17:22.684Z,3120.00
2019-02-06T09:18:22.728Z,3136.00
2019-02-06T09:19:22.722Z,3152.00
2019-02-06T09:20:22.731Z,3172.00
2019-02-06T09:21:22.746Z,3188.00
2019-02-06T09:22:22.765Z,3216.00
2019-02-06T09:23:23.031Z,3288.00
2019-02-06T09:24:22.793Z,3260.00
2019-02-06T09:25:22.818Z,3244.00
2019-02-06T09:26:22.824Z,3240.00
2019-02-06T09:27:22.840Z,3252.00
2019-02-06T09:28:22.858Z,3264.00
2019-02-06T09:29:22.871Z,3296.00
2019-02-06T09:30:22.887Z,3328.00
2019-02-06T09:31:22.903Z,3384.00
2019-02-06T09:32:22.916Z,3436.00
2019-02-06T09:33:23.033Z,3496.00
2019-02-06T09:34:22.950Z,3556.00
2019-02-06T09:35:22.969Z,3636.00
2019-02-06T09:36:23.090Z,3732.00
2019-02-06T09:37:23.005Z,3828.00
2019-02-06T09:38:23.013Z,3896.00
2019-02-06T09:39:23.029Z,3932.00
2019-02-06T09:40:23.044Z,3964.00
2019-02-06T09:41:23.057Z,4000.00
2019-02-06T09:42:23.072Z,4092.00
2019-02-06T09:43:23.088Z,4112.00
2019-02-06T09:44:23.107Z,3972.00
2019-02-06T09:45:23.123Z,3920.00
2019-02-06T09:46:23.135Z,3964.00
2019-02-06T09:47:23.153Z,3920.00
2019-02-06T09:48:23.178Z,3824.00
2019-02-06T09:49:23.182Z,3696.00
2019-02-06T09:50:23.200Z,3604.00
2019-02-06T09:51:23.217Z,3536.00
2019-02-06T09:52:25.681Z,3508.00
2019-02-06T09:53:23.249Z,3480.00
2019-02-06T09:54:23.265Z,3432.00
2019-02-06T09:55:23.280Z,3380.00
2019-02-06T09:56:23.297Z,3348.00
2019-02-06T09:57:23.317Z,3320.00
2019-02-06T09:58:23.336Z,3300.00
2019-02-06T09:59:23.341Z,3280.00
2019-02-06T10:00:23.361Z,3232.00
2019-02-06T10:01:23.373Z,3220.00
2019-02-06T10:02:23.398Z,3220.00
2019-02-06T10:03:23.427Z,3236.00
2019-02-06T10:04:23.421Z,3264.00
2019-02-06T10:05:23.539Z,3288.00
2019-02-06T10:06:23.452Z,3324.00
2019-02-06T10:07:23.475Z,3352.00
2019-02-06T10:08:23.485Z,3368.00
2019-02-06T10:09:23.505Z,3384.00
2019-02-06T10:10:23.516Z,3396.00
2019-02-06T10:11:23.536Z,3396.00
2019-02-06T10:12:23.558Z,3388.00
2019-02-06T10:13:23.563Z,3436.00
2019-02-06T10:14:23.583Z,3484.00
2019-02-06T10:15:23.600Z,3468.00
2019-02-06T10:16:23.683Z,3452.00
2019-02-06T10:17:23.628Z,3440.00
2019-02-06T10:18:23.650Z,3488.00
2019-02-06T10:19:23.662Z,3464.00
2019-02-06T10:20:23.684Z,3416.00
2019-02-06T10:21:23.693Z,3328.00
2019-02-06T10:22:23.707Z,3176.00
2019-02-06T10:23:23.723Z,3012.00
2019-02-06T10:24:23.743Z,2856.00
2019-02-06T10:25:23.754Z,2728.00
2019-02-06T10:26:23.773Z,2656.00
2019-02-06T10:27:24.175Z,2608.00
2019-02-06T10:28:24.385Z,2640.00
2019-02-06T10:29:23.818Z,2608.00
2019-02-06T10:30:23.835Z,2544.00
2019-02-06T10:31:23.857Z,2508.00
2019-02-06T10:32:23.867Z,2520.00
2019-02-06T10:33:23.901Z,2604.00
2019-02-06T10:34:23.999Z,2700.00
2019-02-06T10:35:23.914Z,2780.00
2019-02-06T10:36:23.934Z,2836.00
2019-02-06T10:37:23.950Z,2860.00
2019-02-06T10:38:23.971Z,2924.00
2019-02-06T10:39:34.241Z,3048.00
2019-02-06T10:40:24.025Z,3184.00
2019-02-06T10:41:24.009Z,3252.00
2019-02-06T10:42:24.032Z,3244.00
2019-02-06T10:43:31.614Z,3200.00
2019-02-06T10:44:24.064Z,3252.00
2019-02-06T10:45:24.076Z,3348.00
2019-02-06T10:46:24.290Z,3480.00
2019-02-06T10:47:24.108Z,3660.00
2019-02-06T10:48:24.122Z,3740.00
2019-02-06T10:49:24.138Z,3692.00
2019-02-06T10:50:24.157Z,3628.00
2019-02-06T10:51:24.180Z,3600.00
2019-02-06T10:52:24.186Z,3532.00
2019-02-06T10:53:24.205Z,3472.00
2019-02-06T10:54:24.220Z,3424.00
2019-02-06T10:55:24.237Z,3348.00
2019-02-06T10:56:24.259Z,3212.00
2019-02-06T10:57:24.266Z,3068.00
2019-02-06T10:58:24.285Z,2960.00
2019-02-06T10:59:24.299Z,2780.00
2019-02-06T11:00:24.321Z,2548.00
2019-02-06T11:01:24.331Z,2336.00
2019-02-06T11:02:24.348Z,2228.00
2019-02-06T11:03:24.364Z,2304.00
2019-02-06T11:04:24.794Z,2476.00
2019-02-06T11:05:24.399Z,2668.00
2019-02-06T11:06:24.412Z,2764.00
2019-02-06T11:07:24.430Z,2952.00
2019-02-06T11:08:24.445Z,2924.00
2019-02-06T11:09:24.460Z,2896.00
2019-02-06T11:10:24.481Z,3008.00
2019-02-06T11:11:24.504Z,3084.00
2019-02-06T11:12:24.778Z,3172.00
2019-02-06T11:13:24.529Z,3220.00
2019-02-06T11:14:24.547Z,3212.00
2019-02-06T11:15:24.560Z,3244.00
2019-02-06T11:16:24.598Z,3260.00
2019-02-06T11:17:24.590Z,3308.00
2019-02-06T11:18:24.608Z,3324.00
2019-02-06T11:19:24.625Z,3372.00
2019-02-06T11:20:24.642Z,3320.00
2019-02-06T11:21:24.657Z,3256.00
2019-02-06T11:22:24.672Z,3296.00
2019-02-06T11:23:24.689Z,3284.00
2019-02-06T11:24:26.742Z,3544.00
2019-02-06T11:25:24.730Z,3780.00
2019-02-06T11:26:24.740Z,3904.00
2019-02-06T11:27:24.755Z,3996.00
2019-02-06T11:28:24.899Z,3944.00
2019-02-06T11:29:24.791Z,3632.00
2019-02-06T11:30:24.805Z,3416.00
2019-02-06T11:31:24.819Z,3312.00
2019-02-06T11:32:24.845Z,3336.00
2019-02-06T11:33:24.852Z,3376.00
2019-02-06T11:34:24.877Z,3376.00
2019-02-06T11:35:24.889Z,3424.00
2019-02-06T11:36:25.060Z,3560.00
2019-02-06T11:37:24.930Z,3676.00
2019-02-06T11:38:27.840Z,3728.00
2019-02-06T11:39:24.952Z,3696.00
2019-02-06T11:40:24.971Z,3628.00
2019-02-06T11:41:24.987Z,3588.00
2019-02-06T11:42:25.016Z,3624.00
2019-02-06T11:43:25.017Z,3572.00
2019-02-06T11:44:25.033Z,3544.00
2019-02-06T11:45:25.051Z,3300.00
2019-02-06T11:46:25.072Z,3124.00
2019-02-06T11:47:25.085Z,3064.00
2019-02-06T11:48:25.105Z,3116.00
2019-02-06T11:49:25.117Z,3068.00
2019-02-06T11:50:25.148Z,3228.00
2019-02-06T11:51:25.151Z,3228.00
2019-02-06T11:52:25.170Z,3124.00
2019-02-06T11:53:26.483Z,2980.00
2019-02-06T11:54:25.199Z,2972.00
2019-02-06T11:55:25.224Z,3064.00
2019-02-06T11:56:25.232Z,3260.00
2019-02-06T11:57:25.252Z,3380.00
2019-02-06T11:58:25.269Z,3384.00
2019-02-06T11:59:25.301Z,3236.00
2019-02-06T12:00:25.298Z,3060.00
2019-02-06T12:01:25.316Z,2804.00
2019-02-06T12:02:36.695Z,2636.00
2019-02-06T12:03:25.350Z,2572.00
2019-02-06T12:04:25.365Z,2588.00
2019-02-06T12:05:25.395Z,2592.00
2019-02-06T12:06:25.401Z,2472.00
2019-02-06T12:07:25.414Z,2436.00
2019-02-06T12:08:25.431Z,2540.00
2019-02-06T12:09:25.447Z,2540.00
2019-02-06T12:10:25.464Z,2492.00
2019-02-06T12:11:25.485Z,2528.00
2019-02-06T12:12:25.500Z,2584.00
2019-02-06T12:13:25.513Z,2612.00
2019-02-06T12:14:25.531Z,2604.00
2019-02-06T12:15:25.561Z,2504.00
2019-02-06T12:16:25.585Z,2544.00
2019-02-06T12:17:25.587Z,2664.00
2019-02-06T12:18:25.600Z,2772.00
2019-02-06T12:19:25.919Z,2748.00
2019-02-06T12:20:25.634Z,2800.00
2019-02-06T12:21:25.647Z,2964.00
2019-02-06T12:22:25.663Z,3148.00
2019-02-06T12:23:32.281Z,3300.00
2019-02-06T12:24:25.704Z,3192.00
2019-02-06T12:25:25.717Z,3192.00
2019-02-06T12:26:25.736Z,3228.00
2019-02-06T12:27:25.747Z,3148.00
2019-02-06T12:28:25.764Z,2900.00
2019-02-06T12:29:25.780Z,2732.00
2019-02-06T12:30:25.800Z,2712.00
2019-02-06T12:31:25.816Z,2844.00
2019-02-06T12:32:25.833Z,2964.00
2019-02-06T12:33:25.847Z,3064.00
2019-02-06T12:34:25.866Z,3312.00
2019-02-06T12:35:25.885Z,3376.00
2019-02-06T12:36:25.901Z,3220.00
2019-02-06T12:37:25.914Z,3012.00
2019-02-06T12:38:25.935Z,2984.00
2019-02-06T12:39:25.948Z,3008.00
2019-02-06T12:40:26.118Z,2956.00
2019-02-06T12:41:25.985Z,2868.00
2019-02-06T12:42:26.004Z,2816.00
2019-02-06T12:43:26.018Z,2744.00
2019-02-06T12:44:26.032Z,2772.00
2019-02-06T12:45:26.051Z,2964.00